createdAt,value
2023-02-03T00:01:25.366Z,8.10
2023-02-03T00:03:53.457Z,8.10
2023-02-03T00:06:21.781Z,8.20
2023-02-03T00:08:50.251Z,8.20
2023-02-03T00:11:18.264Z,8.20
2023-02-03T00:13:46.248Z,8.20
2023-02-03T00:16:14.510Z,8.20
2023-02-03T00:18:43.900Z,8.20
2023-02-03T00:21:14.725Z,8.20
2023-02-03T00:23:42.816Z,8.20
2023-02-03T00:26:12.089Z,8.20
2023-02-03T00:28:40.303Z,8.10
2023-02-03T00:31:16.934Z,8.20
2023-02-03T00:33:46.670Z,8.20
2023-02-03T00:36:15.054Z,8.20
2023-02-03T00:38:43.097Z,8.20
2023-02-03T00:41:11.169Z,8.20
2023-02-03T00:43:39.273Z,8.20
2023-02-03T00:46:07.472Z,8.20
2023-02-03T00:48:35.535Z,8.20
2023-02-03T00:51:05.334Z,8.20
2023-02-03T00:53:33.683Z,8.20
2023-02-03T00:56:01.801Z,8.20
2023-02-03T00:58:29.907Z,8.20
2023-02-03T01:00:58.180Z,8.30
2023-02-03T01:03:26.209Z,8.30
2023-02-03T01:05:57.080Z,8.30
2023-02-03T01:08:26.573Z,8.30
2023-02-03T01:10:55.256Z,8.30
2023-02-03T01:13:23.524Z,8.30
2023-02-03T01:15:51.902Z,8.30
2023-02-03T01:18:21.247Z,8.30
2023-02-03T01:20:49.370Z,8.30
2023-02-03T01:23:20.252Z,8.30
2023-02-03T01:25:50.112Z,8.30
2023-02-03T01:28:18.352Z,8.30
2023-02-03T01:30:48.623Z,8.30
2023-02-03T01:33:16.927Z,8.30
2023-02-03T01:35:44.936Z,8.30
2023-02-03T01:38:13.133Z,8.30
2023-02-03T01:40:44.816Z,8.30
2023-02-03T01:43:32.278Z,8.30
2023-02-03T01:46:03.420Z,8.30
2023-02-03T01:48:34.019Z,8.30
2023-02-03T01:51:04.679Z,8.40
2023-02-03T01:53:37.480Z,8.40
2023-02-03T01:56:07.591Z,8.40
2023-02-03T01:58:40.767Z,8.40
2023-02-03T02:01:09.054Z,8.40
2023-02-03T02:03:42.312Z,8.40
2023-02-03T02:06:11.952Z,8.30
2023-02-03T02:08:42.699Z,8.30
2023-02-03T02:11:11.167Z,8.30
2023-02-03T02:13:41.166Z,8.40
2023-02-03T02:16:16.471Z,8.40
2023-02-03T02:19:07.164Z,8.40
2023-02-03T02:21:53.030Z,8.40
2023-02-03T02:24:47.201Z,8.30
2023-02-03T02:27:27.704Z,8.30
2023-02-03T02:30:26.293Z,8.30
2023-02-03T02:33:05.298Z,8.40
2023-02-03T02:35:51.897Z,8.40
2023-02-03T02:38:30.226Z,8.40
2023-02-03T02:41:05.383Z,8.40
2023-02-03T02:43:42.281Z,8.40
2023-02-03T02:46:14.701Z,8.40
2023-02-03T02:48:47.649Z,8.40
2023-02-03T02:51:19.689Z,8.40
2023-02-03T02:53:52.707Z,8.40
2023-02-03T02:56:22.130Z,8.40
2023-02-03T02:58:51.991Z,8.40
2023-02-03T03:01:20.209Z,8.40
2023-02-03T03:03:50.111Z,8.40
2023-02-03T03:06:23.512Z,8.50
2023-02-03T03:08:55.970Z,8.50
2023-02-03T03:11:27.300Z,8.50
2023-02-03T03:13:57.077Z,8.50
2023-02-03T03:16:27.244Z,8.50
2023-02-03T03:18:59.666Z,8.50
2023-02-03T03:21:32.815Z,8.50
2023-02-03T03:24:04.945Z,8.50
2023-02-03T03:26:39.531Z,8.50
2023-02-03T03:29:12.391Z,8.50
2023-02-03T03:31:41.839Z,8.40
2023-02-03T03:34:13.120Z,8.40
2023-02-03T03:36:45.943Z,8.40
2023-02-03T03:39:21.092Z,8.40
2023-02-03T03:41:58.899Z,8.50
2023-02-03T03:44:30.862Z,8.50
2023-02-03T03:47:08.660Z,8.40
2023-02-03T03:49:42.128Z,8.50
2023-02-03T03:52:17.036Z,8.50
2023-02-03T03:54:46.969Z,8.50
2023-02-03T03:57:19.351Z,8.50
2023-02-03T03:59:50.587Z,8.40
2023-02-03T04:02:20.967Z,8.50
2023-02-03T04:04:51.885Z,8.50
2023-02-03T04:07:20.765Z,8.50
2023-02-03T04:09:48.876Z,8.50
2023-02-03T04:12:23.529Z,8.50
2023-02-03T04:14:51.597Z,8.50
2023-02-03T04:17:20.429Z,8.50
2023-02-03T04:19:50.286Z,8.50
2023-02-03T04:22:18.407Z,8.50
2023-02-03T04:24:46.687Z,8.50
2023-02-03T04:27:14.847Z,8.50
2023-02-03T04:29:42.875Z,8.50
2023-02-03T04:32:11.056Z,8.50
2023-02-03T04:34:39.092Z,8.50
2023-02-03T04:37:08.855Z,8.50
2023-02-03T04:39:36.933Z,8.50
2023-02-03T04:42:05.184Z,8.50
2023-02-03T04:44:33.246Z,8.50
2023-02-03T04:47:01.386Z,8.50
2023-02-03T04:49:29.677Z,8.50
2023-02-03T04:51:57.801Z,8.50
2023-02-03T04:54:27.317Z,8.50
2023-02-03T04:56:55.362Z,8.50
2023-02-03T04:59:23.418Z,8.50
2023-02-03T05:01:51.510Z,8.50
2023-02-03T05:04:19.610Z,8.50
2023-02-03T05:06:47.676Z,8.50
2023-02-03T05:09:15.887Z,8.50
2023-02-03T05:11:45.336Z,8.50
2023-02-03T05:14:13.369Z,8.50
2023-02-03T05:16:42.257Z,8.50
2023-02-03T05:19:10.330Z,8.50
2023-02-03T05:21:38.527Z,8.50
2023-02-03T05:24:08.067Z,8.50
2023-02-03T05:26:36.975Z,8.50
2023-02-03T05:29:06.533Z,8.50
2023-02-03T05:31:34.927Z,8.50
2023-02-03T05:34:03.098Z,8.50
2023-02-03T05:36:31.126Z,8.50
2023-02-03T05:38:59.353Z,8.50
2023-02-03T05:41:45.297Z,8.50
2023-02-03T05:44:14.695Z,8.50
2023-02-03T05:46:42.730Z,8.50
2023-02-03T05:49:10.872Z,8.50
2023-02-03T05:51:39.652Z,8.50
2023-02-03T05:54:08.175Z,8.50
2023-02-03T05:56:36.267Z,8.50
2023-02-03T05:59:04.439Z,8.50
2023-02-03T06:01:34.276Z,8.50
2023-02-03T06:04:02.461Z,8.50
2023-02-03T06:06:33.873Z,8.40
2023-02-03T06:09:02.518Z,8.40
2023-02-03T06:11:30.558Z,8.30
2023-02-03T06:13:59.635Z,8.20
2023-02-03T06:16:28.721Z,8.20
2023-02-03T06:18:59.655Z,8.10
2023-02-03T06:21:28.607Z,8.10
2023-02-03T06:23:56.878Z,8.00
2023-02-03T06:26:25.100Z,8.00
2023-02-03T06:28:53.307Z,8.00
2023-02-03T06:31:21.469Z,8.00
2023-02-03T06:33:49.597Z,8.00
2023-02-03T06:36:19.095Z,7.90
2023-02-03T06:38:47.093Z,7.90
2023-02-03T06:41:15.110Z,7.90
2023-02-03T06:43:43.240Z,7.90
2023-02-03T06:46:11.264Z,7.90
2023-02-03T06:48:39.419Z,7.90
2023-02-03T06:51:07.446Z,7.90
2023-02-03T06:53:36.943Z,7.90
2023-02-03T06:56:05.298Z,7.90
2023-02-03T06:58:33.479Z,7.90
2023-02-03T07:01:01.518Z,7.90
2023-02-03T07:03:29.507Z,7.90
2023-02-03T07:05:57.636Z,7.90
2023-02-03T07:08:25.692Z,7.90
2023-02-03T07:10:56.723Z,7.90
2023-02-03T07:13:24.773Z,8.00
2023-02-03T07:15:52.929Z,7.90
2023-02-03T07:18:45.529Z,8.00
2023-02-03T07:21:12.883Z,8.00
2023-02-03T07:23:41.413Z,8.10
2023-02-03T07:26:12.226Z,8.10
2023-02-03T07:28:42.879Z,8.10
2023-02-03T07:31:11.285Z,8.10
2023-02-03T07:33:39.820Z,8.10
2023-02-03T07:36:09.012Z,8.10
2023-02-03T07:38:38.091Z,8.10
2023-02-03T07:41:06.892Z,8.10
2023-02-03T07:43:36.457Z,8.20
2023-02-03T07:46:05.177Z,8.10
2023-02-03T07:48:33.436Z,8.10
2023-02-03T07:51:01.485Z,8.10
2023-02-03T07:53:29.670Z,8.20
2023-02-03T07:56:01.339Z,8.20
2023-02-03T07:58:29.612Z,8.10
2023-02-03T08:01:00.117Z,8.10
2023-02-03T08:03:28.283Z,8.20
2023-02-03T08:05:56.412Z,8.20
2023-02-03T08:08:24.437Z,8.20
2023-02-03T08:10:52.575Z,8.10
2023-02-03T08:13:20.656Z,8.20
2023-02-03T08:15:49.314Z,8.10
2023-02-03T08:18:18.901Z,8.10
2023-02-03T08:20:48.583Z,8.10
2023-02-03T08:23:16.966Z,8.20
2023-02-03T08:25:45.022Z,8.20
2023-02-03T08:28:13.064Z,8.20
2023-02-03T08:30:41.175Z,8.10
2023-02-03T08:33:09.423Z,8.20
2023-02-03T08:35:40.078Z,8.20
2023-02-03T08:38:08.152Z,8.20
2023-02-03T08:40:36.127Z,8.20
2023-02-03T08:43:06.568Z,8.20
2023-02-03T08:45:34.703Z,8.20
2023-02-03T08:48:03.215Z,8.30
2023-02-03T08:50:31.769Z,8.30
2023-02-03T08:53:01.329Z,8.30
2023-02-03T08:55:29.372Z,8.30
2023-02-03T08:57:57.435Z,8.40
2023-02-03T09:00:25.894Z,8.40
2023-02-03T09:02:54.208Z,8.40
2023-02-03T09:05:22.395Z,8.40
2023-02-03T09:07:50.539Z,8.40
2023-02-03T09:10:20.112Z,8.50
2023-02-03T09:12:48.330Z,8.50
2023-02-03T09:15:16.526Z,8.50
2023-02-03T09:17:44.640Z,8.50
2023-02-03T09:20:15.161Z,8.50
2023-02-03T09:22:43.296Z,8.60
2023-02-03T09:25:11.656Z,8.60
2023-02-03T09:27:41.174Z,8.50
2023-02-03T09:30:10.165Z,8.50
2023-02-03T09:32:38.428Z,8.50
2023-02-03T09:35:07.070Z,8.50
2023-02-03T09:37:35.079Z,8.50
2023-02-03T09:40:03.107Z,8.50
2023-02-03T09:42:52.273Z,8.50
2023-02-03T09:45:26.225Z,8.60
2023-02-03T09:47:55.511Z,8.60
2023-02-03T09:50:28.015Z,8.60
2023-02-03T09:52:57.612Z,8.60
2023-02-03T09:55:31.276Z,8.70
2023-02-03T09:58:06.410Z,8.70
2023-02-03T10:00:37.753Z,8.70
2023-02-03T10:03:13.180Z,8.70
2023-02-03T10:06:00.215Z,8.70
2023-02-03T10:08:44.183Z,8.70
2023-02-03T10:11:21.392Z,8.70
2023-02-03T10:14:01.653Z,8.70
2023-02-03T10:16:43.342Z,8.70
2023-02-03T10:19:17.307Z,8.70
2023-02-03T10:21:49.550Z,8.70
2023-02-03T10:24:22.939Z,8.70
2023-02-03T10:26:52.154Z,8.70
2023-02-03T10:29:27.302Z,8.70
2023-02-03T10:31:58.682Z,8.70
2023-02-03T10:34:27.557Z,8.70
2023-02-03T10:36:57.785Z,8.70
2023-02-03T10:39:36.902Z,8.70
2023-02-03T10:42:06.927Z,8.70
2023-02-03T10:44:40.112Z,8.70
2023-02-03T10:47:24.624Z,8.80
2023-02-03T10:49:54.173Z,8.80
2023-02-03T10:52:34.070Z,8.80
2023-02-03T10:55:07.076Z,8.80
2023-02-03T10:57:39.222Z,8.80
2023-02-03T11:00:23.678Z,8.90
2023-02-03T11:02:58.263Z,8.90
2023-02-03T11:05:26.731Z,9.00
2023-02-03T11:07:55.643Z,9.00
2023-02-03T11:10:43.248Z,9.10
2023-02-03T11:13:18.566Z,9.10
2023-02-03T11:15:54.277Z,9.10
2023-02-03T11:18:38.340Z,9.10
2023-02-03T11:21:11.913Z,9.00
2023-02-03T11:23:46.873Z,9.00
2023-02-03T11:26:19.223Z,9.00
2023-02-03T11:28:56.722Z,8.90
2023-02-03T11:31:30.568Z,8.90
2023-02-03T11:34:01.625Z,8.90
2023-02-03T11:36:31.926Z,8.90
2023-02-03T11:39:22.996Z,8.90
2023-02-03T11:41:51.435Z,8.90
2023-02-03T11:44:26.243Z,8.90
2023-02-03T11:47:01.140Z,8.90
2023-02-03T11:50:04.067Z,8.90
2023-02-03T11:53:06.222Z,8.90
2023-02-03T11:55:53.464Z,8.90
2023-02-03T11:59:04.636Z,9.00
2023-02-03T12:02:04.163Z,9.00
2023-02-03T12:05:07.059Z,8.90
2023-02-03T12:07:52.400Z,9.00
2023-02-03T12:10:32.966Z,9.00
2023-02-03T12:13:12.238Z,9.00
2023-02-03T12:15:57.080Z,9.00
2023-02-03T12:18:38.448Z,9.00
2023-02-03T12:21:25.148Z,9.10
2023-02-03T12:23:59.476Z,9.10
2023-02-03T12:26:35.626Z,9.20
2023-02-03T12:29:08.952Z,9.20
2023-02-03T12:31:41.177Z,9.30
2023-02-03T12:34:18.894Z,9.30
2023-02-03T12:36:53.492Z,9.40
2023-02-03T12:39:26.231Z,9.40
2023-02-03T12:42:02.773Z,9.40
2023-02-03T12:44:35.119Z,9.50
2023-02-03T12:47:08.461Z,9.50
2023-02-03T12:49:43.522Z,9.50
2023-02-03T12:52:22.402Z,9.50
2023-02-03T12:54:58.790Z,9.60
2023-02-03T12:57:30.522Z,9.50
2023-02-03T13:00:14.788Z,9.60
2023-02-03T13:02:51.855Z,9.60
2023-02-03T13:05:25.407Z,9.60
2023-02-03T13:08:07.447Z,9.60
2023-02-03T13:10:39.880Z,9.60
2023-02-03T13:13:13.445Z,9.60
2023-02-03T13:15:45.562Z,9.60
2023-02-03T13:18:26.335Z,9.60
2023-02-03T13:20:54.884Z,9.60
2023-02-03T13:23:25.179Z,9.60
2023-02-03T13:26:33.506Z,9.60
2023-02-03T13:29:14.574Z,9.60
2023-02-03T13:31:51.203Z,9.60
2023-02-03T13:34:39.318Z,9.60
2023-02-03T13:37:32.897Z,9.50
2023-02-03T13:40:19.155Z,9.50
2023-02-03T13:42:53.748Z,9.50
2023-02-03T13:45:29.542Z,9.50
2023-02-03T13:48:08.698Z,9.50
2023-02-03T13:50:39.289Z,9.50
2023-02-03T13:53:15.871Z,9.50
2023-02-03T13:55:53.120Z,9.50
2023-02-03T13:58:24.115Z,9.50
2023-02-03T14:01:08.425Z,9.40
2023-02-03T14:03:45.659Z,9.40
2023-02-03T14:06:59.981Z,9.40
2023-02-03T14:09:39.444Z,9.40
2023-02-03T14:12:34.399Z,9.30
2023-02-03T14:15:19.616Z,9.30
2023-02-03T14:18:00.048Z,9.30
2023-02-03T14:21:11.560Z,9.20
2023-02-03T14:23:45.416Z,9.20
2023-02-03T14:26:25.785Z,9.10
2023-02-03T14:28:55.548Z,9.10
2023-02-03T14:31:25.101Z,9.10
2023-02-03T14:34:07.799Z,9.10
2023-02-03T14:36:40.494Z,9.10
2023-02-03T14:39:59.736Z,9.10
2023-02-03T14:43:08.558Z,9.00
2023-02-03T14:46:17.450Z,9.00
2023-02-03T14:49:03.299Z,9.00
2023-02-03T14:51:44.209Z,8.90
2023-02-03T14:54:26.505Z,9.00
2023-02-03T14:57:19.715Z,8.90
2023-02-03T14:59:51.419Z,8.90
2023-02-03T15:02:23.269Z,8.90
2023-02-03T15:04:53.811Z,8.90
2023-02-03T15:07:39.336Z,8.90
2023-02-03T15:10:15.803Z,8.80
2023-02-03T15:12:48.827Z,8.80
2023-02-03T15:15:23.122Z,8.80
2023-02-03T15:17:52.512Z,8.80
2023-02-03T15:20:35.168Z,8.80
2023-02-03T15:23:04.200Z,8.80
2023-02-03T15:25:33.060Z,8.80
2023-02-03T15:28:17.257Z,8.80
2023-02-03T15:30:46.187Z,8.70
2023-02-03T15:33:17.871Z,8.70
2023-02-03T15:35:50.315Z,8.60
2023-02-03T15:38:25.327Z,8.60
2023-02-03T15:40:57.830Z,8.60
2023-02-03T15:43:31.295Z,8.50
2023-02-03T15:46:06.343Z,8.50
2023-02-03T15:48:38.298Z,8.40
2023-02-03T15:51:13.140Z,8.40
2023-02-03T15:53:50.796Z,8.40
2023-02-03T15:56:26.601Z,8.30
2023-02-03T15:58:54.944Z,8.30
2023-02-03T16:01:26.605Z,8.30
2023-02-03T16:03:56.947Z,8.20
2023-02-03T16:06:30.641Z,8.20
2023-02-03T16:09:00.859Z,8.20
2023-02-03T16:11:32.461Z,8.20
2023-02-03T16:14:03.322Z,8.10
2023-02-03T16:16:35.233Z,8.10
2023-02-03T16:19:05.601Z,8.10
2023-02-03T16:21:37.474Z,8.10
2023-02-03T16:24:06.825Z,8.10
2023-02-03T16:26:38.564Z,8.10
2023-02-03T16:29:34.051Z,8.10
2023-02-03T16:32:19.715Z,8.10
2023-02-03T16:35:05.889Z,8.00
2023-02-03T16:38:01.695Z,8.00
2023-02-03T16:40:47.177Z,8.00
2023-02-03T16:43:34.197Z,8.00
2023-02-03T16:46:20.463Z,8.00
2023-02-03T16:49:06.110Z,8.00
2023-02-03T16:51:40.964Z,7.90
2023-02-03T16:54:14.124Z,7.90
2023-02-03T16:56:42.664Z,7.80
2023-02-03T16:59:10.866Z,7.90
2023-02-03T17:01:39.167Z,7.90
2023-02-03T17:04:08.214Z,7.90
2023-02-03T17:06:38.762Z,7.90
2023-02-03T17:09:11.755Z,7.80
2023-02-03T17:11:40.696Z,7.90
2023-02-03T17:14:09.047Z,7.90
2023-02-03T17:16:37.325Z,7.80
2023-02-03T17:19:05.588Z,7.90
2023-02-03T17:21:33.807Z,7.90
2023-02-03T17:24:02.291Z,7.80
2023-02-03T17:26:33.926Z,7.80
2023-02-03T17:29:03.464Z,7.80
2023-02-03T17:31:32.423Z,7.70
2023-02-03T17:34:00.979Z,7.70
2023-02-03T17:36:29.512Z,7.70
2023-02-03T17:55:32.762Z,7.50
2023-02-03T17:58:02.847Z,7.50
2023-02-03T18:00:31.466Z,7.50
2023-02-03T18:02:59.867Z,7.50
2023-02-03T18:05:28.861Z,7.50
2023-02-03T18:07:59.161Z,7.50
2023-02-03T18:10:31.934Z,7.40
2023-02-03T18:13:00.033Z,7.40
2023-02-03T18:15:29.858Z,7.40
2023-02-03T18:17:59.428Z,7.40
2023-02-03T18:20:28.153Z,7.40
2023-02-03T18:22:56.441Z,7.30
2023-02-03T18:25:24.504Z,7.30
2023-02-03T18:27:53.467Z,7.30
2023-02-03T18:30:21.891Z,7.30
2023-02-03T18:32:53.537Z,7.30
2023-02-03T18:35:21.816Z,7.30
2023-02-03T18:37:51.765Z,7.30
2023-02-03T18:40:20.373Z,7.30
2023-02-03T18:42:48.765Z,7.30
2023-02-03T18:45:17.089Z,7.40
2023-02-03T18:47:45.231Z,7.40
2023-02-03T18:50:15.193Z,7.40
2023-02-03T18:52:43.309Z,7.40
2023-02-03T18:55:11.607Z,7.40
2023-02-03T18:57:40.086Z,7.40
2023-02-03T19:00:09.797Z,7.30
2023-02-03T19:02:38.120Z,7.40
2023-02-03T19:05:06.584Z,7.30
2023-02-03T19:07:36.390Z,7.40
2023-02-03T19:10:04.954Z,7.40
2023-02-03T19:12:33.555Z,7.40
2023-02-03T19:15:01.697Z,7.40
2023-02-03T19:17:30.147Z,7.30
2023-02-03T19:19:58.504Z,7.30
2023-02-03T19:22:26.638Z,7.30
2023-02-03T19:24:57.418Z,7.30
2023-02-03T19:27:26.118Z,7.30
2023-02-03T19:29:54.616Z,7.30
2023-02-03T19:32:23.126Z,7.30
2023-02-03T19:34:51.542Z,7.20
2023-02-03T19:37:19.640Z,7.20
2023-02-03T19:39:50.481Z,7.20
2023-02-03T19:42:20.398Z,7.20
2023-02-03T19:44:51.037Z,7.20
2023-02-03T19:47:19.407Z,7.20
2023-02-03T19:49:47.569Z,7.20
2023-02-03T19:52:15.841Z,7.20
2023-02-03T19:54:47.189Z,7.10
2023-02-03T19:57:15.770Z,7.10
2023-02-03T19:59:45.366Z,7.10
2023-02-03T20:02:15.922Z,7.10
2023-02-03T20:04:45.345Z,7.10
2023-02-03T20:07:13.789Z,7.10
2023-02-03T20:09:41.916Z,7.10
2023-02-03T20:12:10.056Z,7.10
2023-02-03T20:14:38.488Z,7.10
2023-02-03T20:17:08.294Z,7.10
2023-02-03T20:19:36.357Z,7.10
2023-02-03T20:22:04.542Z,7.10
2023-02-03T20:24:32.859Z,7.10
2023-02-03T20:27:01.156Z,7.10
2023-02-03T20:29:29.643Z,7.10
2023-02-03T20:31:58.654Z,7.10
2023-02-03T20:34:29.634Z,7.10
2023-02-03T20:36:58.941Z,7.10
2023-02-03T20:39:27.738Z,7.00
2023-02-03T20:41:56.149Z,7.00
2023-02-03T20:44:24.607Z,7.00
2023-02-03T20:46:53.502Z,7.00
2023-02-03T20:49:24.743Z,7.00
2023-02-03T20:51:54.423Z,7.00
2023-02-03T20:54:23.777Z,7.00
2023-02-03T20:56:52.208Z,7.00
2023-02-03T20:59:21.256Z,7.00
2023-02-03T21:01:50.726Z,6.90
2023-02-03T21:04:38.487Z,6.90
2023-02-03T21:07:15.181Z,6.80
2023-02-03T21:09:43.470Z,6.80
2023-02-03T21:12:13.944Z,6.70
2023-02-03T21:14:44.480Z,6.70
2023-02-03T21:17:20.703Z,6.60
2023-02-03T21:19:49.505Z,6.60
2023-02-03T21:22:23.804Z,6.60
2023-02-03T21:24:54.485Z,6.70
2023-02-03T21:27:28.786Z,6.70
2023-02-03T21:29:58.189Z,6.70
2023-02-03T21:32:32.354Z,6.70
2023-02-03T21:35:05.033Z,6.80
2023-02-03T21:37:42.769Z,6.80
2023-02-03T21:40:26.215Z,6.80
2023-02-03T21:42:55.312Z,6.80
2023-02-03T21:45:42.855Z,6.80
2023-02-03T21:48:30.218Z,6.80
2023-02-03T21:51:03.846Z,6.70
2023-02-03T21:53:36.184Z,6.80
2023-02-03T21:56:18.458Z,6.70
2023-02-03T21:58:48.702Z,6.80
2023-02-03T22:01:17.933Z,6.70
2023-02-03T22:03:51.265Z,6.70
2023-02-03T22:06:25.336Z,6.70
2023-02-03T22:08:59.385Z,6.70
2023-02-03T22:11:30.097Z,6.70
2023-02-03T22:13:58.898Z,6.70
2023-02-03T22:16:29.287Z,6.70
2023-02-03T22:18:58.607Z,6.70
2023-02-03T22:21:27.776Z,6.80
2023-02-03T22:23:57.591Z,6.80
2023-02-03T22:26:26.081Z,6.80
2023-02-03T22:28:54.697Z,6.80
2023-02-03T22:31:23.663Z,6.80
2023-02-03T22:33:52.400Z,6.70
2023-02-03T22:36:23.379Z,6.70
2023-02-03T22:38:52.454Z,6.70
2023-02-03T22:41:22.063Z,6.70
2023-02-03T22:43:51.199Z,6.70
2023-02-03T22:46:19.253Z,6.70
2023-02-03T22:48:47.602Z,6.70
2023-02-03T22:51:15.707Z,6.70
2023-02-03T22:53:43.972Z,6.70
2023-02-03T22:56:12.383Z,6.70
2023-02-03T22:58:41.975Z,6.60
2023-02-03T23:01:10.105Z,6.60
2023-02-03T23:03:38.381Z,6.60
2023-02-03T23:06:06.758Z,6.60
2023-02-03T23:08:34.970Z,6.50
2023-02-03T23:11:03.076Z,6.50
2023-02-03T23:13:31.371Z,6.50
2023-02-03T23:16:00.845Z,6.50
2023-02-03T23:18:29.074Z,6.40
2023-02-03T23:20:57.107Z,6.40
2023-02-03T23:23:25.194Z,6.30
2023-02-03T23:25:53.427Z,6.30
2023-02-03T23:28:21.592Z,6.30
2023-02-03T23:30:50.007Z,6.30
2023-02-03T23:33:19.737Z,6.20
2023-02-03T23:35:46.911Z,6.20
2023-02-03T23:38:15.926Z,6.20
2023-02-03T23:40:44.857Z,6.20
2023-02-03T23:43:12.973Z,6.10
2023-02-03T23:45:41.176Z,6.10
2023-02-03T23:48:09.845Z,6.10
2023-02-03T23:50:39.553Z,6.10
2023-02-03T23:53:07.722Z,6.10
2023-02-03T23:55:36.570Z,6.10
2023-02-03T23:58:05.733Z,6.10
